createdAt,value
2022-10-01T00:00:52.469Z,100385.28
2022-10-01T00:03:55.050Z,100384.41
2022-10-01T00:06:59.334Z,100387.00
2022-10-01T00:10:01.897Z,100388.75
2022-10-01T00:13:04.220Z,100371.47
2022-10-01T00:16:08.802Z,100365.38
2022-10-01T00:19:15.024Z,100438.59
2022-10-01T00:22:19.051Z,100482.06
2022-10-01T00:25:22.483Z,100393.13
2022-10-01T00:28:25.158Z,100386.34
2022-10-01T00:31:27.728Z,100392.63
2022-10-01T00:34:30.388Z,100385.81
2022-10-01T00:37:33.225Z,100379.19
2022-10-01T00:40:35.901Z,100380.88
2022-10-01T00:43:43.172Z,100373.94
2022-10-01T00:46:46.184Z,100367.62
2022-10-01T00:49:50.423Z,100364.16
2022-10-01T00:52:55.478Z,100368.56
2022-10-01T00:55:58.267Z,100371.09
2022-10-01T00:59:01.401Z,100375.66
2022-10-01T01:02:03.728Z,100370.56
2022-10-01T01:05:07.193Z,100368.87
2022-10-01T01:08:09.991Z,100377.38
2022-10-01T01:11:51.468Z,100375.25
2022-10-01T01:15:01.111Z,100370.75
2022-10-01T01:18:09.661Z,100362.72
2022-10-01T01:21:15.684Z,100359.59
2022-10-01T01:24:18.162Z,100370.31
2022-10-01T01:27:40.667Z,100380.75
2022-10-01T01:30:44.432Z,100400.38
2022-10-01T01:33:50.288Z,100406.47
2022-10-01T01:36:55.966Z,100399.28
2022-10-01T01:39:59.763Z,100381.50
2022-10-01T01:43:05.583Z,100365.53
2022-10-01T01:46:10.199Z,100370.75
2022-10-01T01:49:14.319Z,100373.69
2022-10-01T01:52:17.396Z,100379.19
2022-10-01T01:55:21.811Z,100373.34
2022-10-01T01:58:26.203Z,100372.41
2022-10-01T02:01:37.730Z,100368.16
2022-10-01T02:04:46.758Z,100369.91
2022-10-01T02:08:01.768Z,100358.56
2022-10-01T02:11:11.431Z,100355.06
2022-10-01T02:14:21.088Z,100356.59
2022-10-01T02:17:38.686Z,100360.84
2022-10-01T02:21:03.195Z,100354.00
2022-10-01T02:24:19.725Z,100352.37
2022-10-01T02:27:26.376Z,100362.94
2022-10-01T02:30:37.720Z,100361.31
2022-10-01T02:33:41.924Z,100359.66
2022-10-01T02:36:45.449Z,100374.62
2022-10-01T02:39:48.108Z,100372.91
2022-10-01T02:42:53.013Z,100380.75
2022-10-01T02:45:58.127Z,100362.44
2022-10-01T02:49:02.859Z,100365.87
2022-10-01T02:52:11.972Z,100372.72
2022-10-01T02:55:19.630Z,100370.31
2022-10-01T02:58:22.133Z,100369.34
2022-10-01T03:01:24.947Z,100365.94
2022-10-01T03:04:27.239Z,100362.47
2022-10-01T03:07:30.757Z,100371.25
2022-10-01T03:10:33.689Z,100371.03
2022-10-01T03:13:36.747Z,100373.44
2022-10-01T03:16:38.971Z,100357.59
2022-10-01T03:19:41.738Z,100363.00
2022-10-01T03:22:47.564Z,100363.88
2022-10-01T03:25:50.124Z,100349.63
2022-10-01T03:28:52.403Z,100344.34
2022-10-01T03:31:55.075Z,100367.25
2022-10-01T03:34:57.509Z,100367.06
2022-10-01T03:38:00.050Z,100361.56
2022-10-01T03:41:02.329Z,100389.78
2022-10-01T03:44:05.189Z,100401.12
2022-10-01T03:47:07.368Z,100416.53
2022-10-01T03:50:10.817Z,100425.06
2022-10-01T03:53:13.135Z,100410.13
2022-10-01T03:56:16.238Z,100419.00
2022-10-01T03:59:19.943Z,100402.09
2022-10-01T04:02:22.659Z,100386.28
2022-10-01T04:05:25.630Z,100383.22
2022-10-01T04:08:27.975Z,100381.53
2022-10-01T04:11:30.745Z,100376.44
2022-10-01T04:14:33.052Z,100357.31
2022-10-01T04:17:36.075Z,100358.94
2022-10-01T04:20:38.346Z,100369.34
2022-10-01T04:23:40.844Z,100370.16
2022-10-01T04:26:43.215Z,100366.06
2022-10-01T04:29:45.690Z,100369.66
2022-10-01T04:32:47.907Z,100361.84
2022-10-01T04:35:50.409Z,100360.00
2022-10-01T04:38:56.619Z,100372.16
2022-10-01T04:42:02.628Z,100371.34
2022-10-01T04:45:05.117Z,100372.00
2022-10-01T04:48:07.651Z,100368.28
2022-10-01T04:51:10.023Z,100363.38
2022-10-01T04:54:12.597Z,100366.00
2022-10-01T04:57:14.778Z,100374.47
2022-10-01T05:00:18.660Z,100372.78
2022-10-01T05:03:21.212Z,100371.00
2022-10-01T05:06:23.864Z,100381.34
2022-10-01T05:09:31.495Z,100370.81
2022-10-01T05:12:35.013Z,100377.09
2022-10-01T05:15:37.306Z,100377.88
2022-10-01T05:18:40.621Z,100382.19
2022-10-01T05:21:43.717Z,100388.00
2022-10-01T05:24:46.256Z,100396.09
2022-10-01T05:27:49.127Z,100418.59
2022-10-01T05:30:51.954Z,100433.63
2022-10-01T05:33:54.187Z,100422.12
2022-10-01T05:36:56.741Z,100415.66
2022-10-01T05:39:59.149Z,100411.41
2022-10-01T05:43:04.346Z,100419.25
2022-10-01T05:46:06.707Z,100407.13
2022-10-01T05:49:10.647Z,100404.31
2022-10-01T05:52:13.982Z,100391.25
2022-10-01T05:55:16.607Z,100389.41
2022-10-01T05:58:18.893Z,100390.41
2022-10-01T06:01:21.615Z,100396.47
2022-10-01T06:04:24.170Z,100393.78
2022-10-01T06:07:26.514Z,100393.66
2022-10-01T06:10:30.351Z,100391.12
2022-10-01T06:13:33.199Z,100379.81
2022-10-01T06:16:35.768Z,100374.59
2022-10-01T06:19:38.039Z,100365.81
2022-10-01T06:22:42.509Z,100366.37
2022-10-01T06:25:45.296Z,100369.69
2022-10-01T06:28:51.221Z,100370.53
2022-10-01T06:31:54.347Z,100329.91
2022-10-01T06:34:56.941Z,100320.56
2022-10-01T06:38:01.708Z,100332.63
2022-10-01T06:41:05.234Z,100363.00
2022-10-01T06:44:07.563Z,100375.31
2022-10-01T06:47:10.067Z,100387.16
2022-10-01T06:50:13.541Z,100384.69
2022-10-01T06:53:17.366Z,100373.69
2022-10-01T06:56:19.640Z,100369.09
2022-10-01T06:59:22.221Z,100369.66
2022-10-01T07:02:29.014Z,100363.44
2022-10-01T07:05:31.633Z,100366.50
2022-10-01T07:08:33.865Z,100365.75
2022-10-01T07:11:36.838Z,100373.53
2022-10-01T07:14:39.279Z,100371.69
2022-10-01T07:17:46.045Z,100368.63
2022-10-01T07:20:48.391Z,100366.53
2022-10-01T07:23:51.236Z,100375.78
2022-10-01T07:26:55.599Z,100359.75
2022-10-01T07:29:59.159Z,100353.69
2022-10-01T07:33:01.392Z,100353.84
2022-10-01T07:36:05.624Z,100344.22
2022-10-01T07:39:08.217Z,100334.31
2022-10-01T07:42:11.052Z,100333.69
2022-10-01T07:45:13.290Z,100329.09
2022-10-01T07:48:15.835Z,100331.03
2022-10-01T07:51:18.183Z,100325.22
2022-10-01T07:54:21.891Z,100331.91
2022-10-01T07:57:24.196Z,100331.50
2022-10-01T08:00:27.228Z,100337.34
2022-10-01T08:03:29.795Z,100345.87
2022-10-01T08:06:32.109Z,100337.41
2022-10-01T08:09:34.902Z,100330.91
2022-10-01T08:12:37.191Z,100336.84
2022-10-01T08:15:39.947Z,100337.84
2022-10-01T08:18:42.135Z,100326.06
2022-10-01T08:21:44.968Z,100319.53
2022-10-01T08:24:47.877Z,100331.28
2022-10-01T08:27:50.437Z,100339.41
2022-10-01T08:30:53.202Z,100344.00
2022-10-01T08:33:55.931Z,100341.38
2022-10-01T08:36:58.187Z,100340.84
2022-10-01T08:40:00.807Z,100331.44
2022-10-01T08:43:06.216Z,100316.81
2022-10-01T08:46:16.432Z,100304.28
2022-10-01T08:49:18.814Z,100287.84
2022-10-01T08:52:32.339Z,100293.22
2022-10-01T08:55:37.351Z,100294.72
2022-10-01T08:58:43.709Z,100288.72
2022-10-01T09:01:46.156Z,100291.66
2022-10-01T09:04:50.455Z,100291.72
2022-10-01T09:08:15.374Z,100292.47
2022-10-01T09:11:32.002Z,100296.53
2022-10-01T09:14:53.141Z,100291.37
2022-10-01T09:17:55.700Z,100288.75
2022-10-01T09:20:58.986Z,100284.44
2022-10-01T09:24:11.817Z,100295.84
2022-10-01T09:27:16.000Z,100291.75
2022-10-01T09:30:20.631Z,100285.09
2022-10-01T09:33:24.821Z,100279.56
2022-10-01T09:36:34.916Z,100288.59
2022-10-01T09:39:40.244Z,100278.56
2022-10-01T09:42:43.591Z,100272.31
2022-10-01T09:45:47.274Z,100258.53
2022-10-01T09:49:03.279Z,100274.94
2022-10-01T09:52:19.572Z,100268.00
2022-10-01T09:55:24.979Z,100276.25
2022-10-01T09:58:29.131Z,100257.63
2022-10-01T10:01:46.631Z,100258.97
2022-10-01T10:04:58.887Z,100249.41
2022-10-01T10:08:15.628Z,100258.00
2022-10-01T10:11:23.098Z,100255.22
2022-10-01T10:14:30.630Z,100252.72
2022-10-01T10:17:35.327Z,100244.81
2022-10-01T10:20:41.167Z,100235.03
2022-10-01T10:23:47.765Z,100234.81
2022-10-01T10:26:54.915Z,100229.16
2022-10-01T10:30:05.113Z,100219.97
2022-10-01T10:33:14.039Z,100213.25
2022-10-01T10:36:16.928Z,100210.09
2022-10-01T10:39:30.924Z,100212.47
2022-10-01T10:42:34.423Z,100212.69
2022-10-01T10:45:38.740Z,100213.94
2022-10-01T10:48:45.847Z,100195.38
2022-10-01T10:51:54.051Z,100197.16
2022-10-01T10:54:58.196Z,100189.63
2022-10-01T10:58:10.947Z,100185.34
2022-10-01T11:01:16.315Z,100186.88
2022-10-01T11:04:23.871Z,100180.75
2022-10-01T11:07:27.359Z,100169.47
2022-10-01T11:10:43.370Z,100171.25
2022-10-01T11:13:58.348Z,100175.31
2022-10-01T11:17:31.011Z,100163.22
2022-10-01T11:20:33.987Z,100155.41
2022-10-01T11:23:37.662Z,100149.06
2022-10-01T11:26:43.280Z,100146.78
2022-10-01T11:30:04.519Z,100132.59
2022-10-01T11:33:16.782Z,100120.09
2022-10-01T11:36:26.505Z,100124.97
2022-10-01T11:39:32.028Z,100115.63
2022-10-01T11:42:36.235Z,100105.78
2022-10-01T11:45:43.671Z,100108.69
2022-10-01T11:48:46.039Z,100102.19
2022-10-01T11:51:51.735Z,100105.19
2022-10-01T11:55:31.695Z,100102.28
2022-10-01T11:58:53.064Z,100080.91
2022-10-01T12:02:17.005Z,100077.56
2022-10-01T12:05:21.654Z,100076.59
2022-10-01T12:08:36.657Z,100077.47
2022-10-01T12:11:49.357Z,100079.50
2022-10-01T12:15:15.375Z,100079.97
2022-10-01T12:18:36.967Z,100077.69
2022-10-01T12:21:55.680Z,100073.94
2022-10-01T12:24:58.253Z,100064.47
2022-10-01T12:28:12.541Z,100064.59
2022-10-01T12:31:37.153Z,100060.72
2022-10-01T12:34:53.850Z,100063.13
2022-10-01T12:38:05.687Z,100055.22
2022-10-01T12:41:17.494Z,100050.91
2022-10-01T12:44:40.947Z,100052.56
2022-10-01T12:47:49.484Z,100061.00
2022-10-01T12:51:02.931Z,100063.50
2022-10-01T12:54:05.305Z,100064.47
2022-10-01T12:57:23.045Z,100059.91
2022-10-01T13:00:27.336Z,100057.06
2022-10-01T13:03:50.171Z,100039.16
2022-10-01T13:06:55.564Z,100041.94
2022-10-01T13:10:16.916Z,100036.22
2022-10-01T13:13:20.961Z,100032.50
2022-10-01T13:16:37.034Z,100030.03
2022-10-01T13:19:39.738Z,100012.69
2022-10-01T13:22:55.554Z,100002.00
2022-10-01T13:26:01.812Z,100002.38
2022-10-01T13:29:25.499Z,100009.59
2022-10-01T13:32:33.331Z,100001.19
2022-10-01T13:35:39.413Z,99996.16
2022-10-01T13:38:43.543Z,99991.84
2022-10-01T13:41:46.195Z,99991.13
2022-10-01T13:44:52.976Z,99986.72
2022-10-01T13:48:06.879Z,99978.19
2022-10-01T13:51:12.789Z,99986.06
2022-10-01T13:54:22.351Z,99968.75
2022-10-01T13:57:29.768Z,99967.97
2022-10-01T14:00:32.834Z,99967.31
2022-10-01T14:03:36.581Z,99959.03
2022-10-01T14:06:46.306Z,99964.38
2022-10-01T14:09:50.300Z,99954.78
2022-10-01T14:13:11.053Z,99961.47
2022-10-01T14:16:14.142Z,99970.56
2022-10-01T14:19:21.403Z,99969.38
2022-10-01T14:22:43.439Z,99971.37
2022-10-01T14:25:53.943Z,99968.50
2022-10-01T14:29:16.826Z,99970.59
2022-10-01T14:32:39.027Z,99974.81
2022-10-01T14:35:49.095Z,99968.50
2022-10-01T14:38:51.393Z,99966.34
2022-10-01T14:41:55.367Z,99966.88
2022-10-01T14:44:57.663Z,99952.78
2022-10-01T14:48:09.762Z,99953.19
2022-10-01T14:51:23.753Z,99955.69
2022-10-01T14:54:26.994Z,99959.31
2022-10-01T14:57:33.364Z,99947.94
2022-10-01T15:00:36.864Z,99947.69
2022-10-01T15:03:40.313Z,99946.50
2022-10-01T15:06:42.930Z,99951.16
2022-10-01T15:09:45.901Z,99952.19
2022-10-01T15:12:50.509Z,99958.22
2022-10-01T15:15:53.656Z,99957.44
2022-10-01T15:18:58.758Z,99956.78
2022-10-01T15:22:01.808Z,99964.53
2022-10-01T15:25:04.624Z,99968.50
2022-10-01T15:28:14.138Z,99970.03
2022-10-01T15:31:16.939Z,99971.56
2022-10-01T15:34:20.555Z,99978.00
2022-10-01T15:37:34.786Z,99979.38
2022-10-01T15:40:38.695Z,99984.84
2022-10-01T15:43:42.205Z,99990.38
2022-10-01T15:46:44.600Z,99993.06
2022-10-01T15:50:06.102Z,99990.09
2022-10-01T15:53:22.292Z,99991.00
2022-10-01T15:56:24.972Z,99986.50
2022-10-01T15:59:27.299Z,99984.84
2022-10-01T16:02:31.264Z,99982.50
2022-10-01T16:05:44.662Z,99987.66
2022-10-01T16:09:07.227Z,99988.69
2022-10-01T16:12:09.779Z,99989.62
2022-10-01T16:15:29.159Z,99993.94
2022-10-01T16:18:37.408Z,99999.28
2022-10-01T16:21:40.475Z,100001.41
2022-10-01T16:24:47.057Z,99999.31
2022-10-01T16:28:01.025Z,99998.09
2022-10-01T16:31:04.382Z,99995.25
2022-10-01T16:34:13.639Z,99990.03
2022-10-01T16:37:16.476Z,99997.31
2022-10-01T16:40:19.531Z,100002.94
2022-10-01T16:43:25.045Z,100005.03
2022-10-01T16:46:27.701Z,99999.78
2022-10-01T16:49:30.302Z,100007.06
2022-10-01T16:52:32.839Z,100016.25
2022-10-01T16:55:38.437Z,100009.53
2022-10-01T16:58:41.721Z,100002.53
2022-10-01T17:01:44.835Z,100015.72
2022-10-01T17:04:47.147Z,99998.75
2022-10-01T17:07:49.708Z,100003.81
2022-10-01T17:10:57.026Z,100005.31
2022-10-01T17:13:59.736Z,100005.41
2022-10-01T17:17:02.049Z,100004.56
2022-10-01T17:20:05.572Z,100002.09
2022-10-01T17:23:10.000Z,100003.81
2022-10-01T17:26:12.575Z,100000.28
2022-10-01T17:29:14.947Z,99998.66
2022-10-01T17:32:19.348Z,99985.56
2022-10-01T17:35:21.689Z,99990.97
2022-10-01T17:38:24.309Z,99996.13
2022-10-01T17:41:26.841Z,99999.97
2022-10-01T17:44:29.393Z,100002.47
2022-10-01T17:47:31.616Z,100014.34
2022-10-01T17:50:34.306Z,100018.78
2022-10-01T17:53:42.243Z,100013.81
2022-10-01T17:56:45.679Z,100014.94
2022-10-01T17:59:47.983Z,100022.03
2022-10-01T18:02:50.565Z,100017.72
2022-10-01T18:05:59.995Z,100013.00
2022-10-01T18:09:02.793Z,100011.34
2022-10-01T18:12:05.322Z,100021.97
2022-10-01T18:15:07.959Z,100006.59
2022-10-01T18:19:45.805Z,100011.16
2022-10-01T18:21:33.505Z,100006.19
2022-10-01T18:24:36.113Z,100028.19
2022-10-01T18:27:38.600Z,100028.62
2022-10-01T18:30:41.167Z,100033.75
2022-10-01T18:33:45.832Z,100042.56
2022-10-01T18:36:55.490Z,100037.47
2022-10-01T18:40:05.905Z,100047.94
2022-10-01T18:43:11.250Z,100049.97
2022-10-01T18:46:20.742Z,100050.56
2022-10-01T18:49:42.504Z,100052.97
2022-10-01T18:52:46.796Z,100058.91
2022-10-01T18:55:58.315Z,100079.00
2022-10-01T18:59:19.751Z,100074.59
2022-10-01T19:02:39.299Z,100075.22
2022-10-01T19:05:48.068Z,100075.38
2022-10-01T19:09:03.093Z,100072.06
2022-10-01T19:12:27.016Z,100083.31
2022-10-01T19:15:44.907Z,100080.84
2022-10-01T19:19:02.737Z,100075.88
2022-10-01T19:22:05.394Z,100070.78
2022-10-01T19:25:11.139Z,100085.56
2022-10-01T19:28:29.389Z,100072.41
2022-10-01T19:31:50.754Z,100070.87
2022-10-01T19:35:06.363Z,100075.09
2022-10-01T19:38:11.915Z,100084.78
2022-10-01T19:41:26.980Z,100096.19
2022-10-01T19:44:33.299Z,100083.25
2022-10-01T19:47:57.643Z,100086.03
2022-10-01T19:51:07.445Z,100092.44
2022-10-01T19:54:13.434Z,100097.34
2022-10-01T19:57:22.227Z,100091.87
2022-10-01T20:00:24.851Z,100099.03
2022-10-01T20:03:40.654Z,100095.84
2022-10-01T20:06:45.295Z,100104.44
2022-10-01T20:09:51.126Z,100107.00
2022-10-01T20:12:58.667Z,100102.19
2022-10-01T20:16:11.449Z,100105.50
2022-10-01T20:19:20.036Z,100106.25
2022-10-01T20:22:48.456Z,100106.31
2022-10-01T20:26:02.560Z,100114.09
2022-10-01T20:29:17.248Z,100107.41
2022-10-01T20:32:28.448Z,100106.50
2022-10-01T20:35:49.537Z,100106.81
2022-10-01T20:39:04.250Z,100118.44
2022-10-01T20:42:11.080Z,100126.56
2022-10-01T20:45:16.479Z,100130.50
2022-10-01T20:48:24.327Z,100135.97
2022-10-01T20:51:35.905Z,100138.53
2022-10-01T20:54:47.442Z,100142.37
2022-10-01T20:58:12.373Z,100145.22
2022-10-01T21:01:21.995Z,100160.31
2022-10-01T21:04:28.240Z,100161.97
2022-10-01T21:07:30.713Z,100177.53
2022-10-01T21:10:40.316Z,100188.22
2022-10-01T21:13:49.298Z,100195.16
2022-10-01T21:17:10.011Z,100191.12
2022-10-01T21:20:27.887Z,100193.75
2022-10-01T21:23:34.290Z,100197.44
2022-10-01T21:26:51.460Z,100203.88
2022-10-01T21:30:03.307Z,100205.38
2022-10-01T21:33:23.486Z,100207.66
2022-10-01T21:36:30.075Z,100210.81
2022-10-01T21:39:35.046Z,100223.19
2022-10-01T21:42:45.624Z,100219.78
2022-10-01T21:45:54.937Z,100213.19
2022-10-01T21:49:03.340Z,100220.47
2022-10-01T21:52:10.831Z,100216.37
2022-10-01T21:55:24.689Z,100213.09
2022-10-01T21:58:28.084Z,100210.59
2022-10-01T22:01:36.883Z,100206.37
2022-10-01T22:04:47.794Z,100200.22
2022-10-01T22:07:52.865Z,100202.28
2022-10-01T22:10:58.859Z,100211.31
2022-10-01T22:14:02.987Z,100218.03
2022-10-01T22:17:31.784Z,100216.09
2022-10-01T22:20:34.977Z,100199.41
2022-10-01T22:23:40.531Z,100196.84
2022-10-01T22:26:47.099Z,100202.28
2022-10-01T22:29:55.372Z,100195.19
2022-10-01T22:33:13.152Z,100196.72
2022-10-01T22:36:18.208Z,100207.44
2022-10-01T22:39:24.767Z,100199.34
2022-10-01T22:42:30.523Z,100204.97
2022-10-01T22:45:42.245Z,100217.53
2022-10-01T22:48:44.936Z,100221.16
2022-10-01T22:51:56.261Z,100232.16
2022-10-01T22:55:07.900Z,100221.72
2022-10-01T22:58:22.867Z,100233.44
2022-10-01T23:01:49.214Z,100241.41
2022-10-01T23:05:00.817Z,100247.09
2022-10-01T23:08:09.333Z,100253.25
2022-10-01T23:11:18.518Z,100250.06
2022-10-01T23:14:59.686Z,100241.19
2022-10-01T23:18:20.576Z,100245.41
2022-10-01T23:21:32.630Z,100239.94
2022-10-01T23:24:41.848Z,100234.41
2022-10-01T23:27:56.565Z,100242.25
2022-10-01T23:31:04.714Z,100245.41
2022-10-01T23:34:13.581Z,100247.94
2022-10-01T23:37:34.762Z,100250.63
2022-10-01T23:40:40.954Z,100251.88
2022-10-01T23:43:49.404Z,100251.47
2022-10-01T23:46:53.869Z,100254.59
2022-10-01T23:49:57.957Z,100249.38
2022-10-01T23:53:09.856Z,100241.97
2022-10-01T23:56:34.652Z,100244.84
2022-10-01T23:59:41.311Z,100258.94
